createdAt,value
2018-10-02T00:01:57.503Z,7.40
2018-10-02T00:04:25.884Z,7.30
2018-10-02T00:06:54.260Z,7.10
2018-10-02T00:09:29.259Z,7.10
2018-10-02T00:12:03.154Z,7.00
2018-10-02T00:14:32.894Z,6.90
2018-10-02T00:17:01.286Z,6.90
2018-10-02T00:19:29.493Z,6.90
2018-10-02T00:21:58.682Z,6.80
2018-10-02T00:24:27.644Z,6.80
2018-10-02T00:26:56.082Z,6.80
2018-10-02T00:29:24.485Z,6.80
2018-10-02T00:31:53.259Z,6.80
2018-10-02T00:34:21.845Z,6.80
2018-10-02T00:36:50.358Z,6.80
2018-10-02T00:39:18.583Z,6.80
2018-10-02T00:41:46.855Z,6.80
2018-10-02T00:44:15.186Z,6.70
2018-10-02T00:46:43.504Z,6.60
2018-10-02T00:49:11.695Z,6.60
2018-10-02T00:51:39.978Z,6.50
2018-10-02T00:54:09.262Z,6.30
2018-10-02T00:56:37.568Z,6.30
2018-10-02T00:59:05.855Z,6.30
2018-10-02T01:01:34.221Z,6.20
2018-10-02T01:04:02.445Z,6.20
2018-10-02T01:06:30.690Z,6.10
2018-10-02T01:08:58.997Z,6.10
2018-10-02T01:11:27.203Z,6.10
2018-10-02T01:13:55.458Z,6.10
2018-10-02T01:16:23.680Z,6.00
2018-10-02T01:18:51.897Z,5.90
2018-10-02T01:21:20.405Z,5.90
2018-10-02T01:23:48.611Z,5.80
2018-10-02T01:26:16.863Z,5.80
2018-10-02T01:28:45.210Z,5.80
2018-10-02T01:31:13.485Z,5.80
2018-10-02T01:33:41.722Z,5.80
2018-10-02T01:36:10.486Z,5.80
2018-10-02T01:38:38.941Z,5.90
2018-10-02T01:41:07.184Z,5.90
2018-10-02T01:43:35.474Z,6.00
2018-10-02T01:46:03.851Z,6.00
2018-10-02T01:48:32.422Z,6.10
2018-10-02T01:51:00.928Z,6.10
2018-10-02T01:53:29.159Z,6.20
2018-10-02T01:55:57.797Z,6.20
2018-10-02T01:58:26.473Z,6.20
2018-10-02T02:00:54.684Z,6.10
2018-10-02T02:03:22.932Z,6.10
2018-10-02T02:05:51.129Z,6.10
2018-10-02T02:08:19.701Z,6.00
2018-10-02T02:10:48.033Z,5.90
2018-10-02T02:13:16.430Z,5.80
2018-10-02T02:15:44.900Z,5.70
2018-10-02T02:18:13.096Z,5.70
2018-10-02T02:20:41.476Z,5.60
2018-10-02T02:23:09.772Z,5.50
2018-10-02T02:25:38.157Z,5.40
2018-10-02T02:28:06.529Z,5.30
2018-10-02T02:30:35.238Z,5.20
2018-10-02T02:33:03.533Z,5.10
2018-10-02T02:35:31.781Z,5.10
2018-10-02T02:38:00.126Z,5.10
2018-10-02T02:40:28.333Z,5.00
2018-10-02T02:42:57.593Z,5.00
2018-10-02T02:45:26.286Z,5.10
2018-10-02T02:48:00.088Z,5.00
2018-10-02T02:50:34.050Z,5.00
2018-10-02T02:53:07.535Z,5.00
2018-10-02T02:55:36.216Z,4.90
2018-10-02T02:58:04.722Z,4.90
2018-10-02T03:00:33.322Z,4.90
2018-10-02T03:03:01.596Z,4.80
2018-10-02T03:05:29.788Z,4.70
2018-10-02T03:07:58.218Z,4.50
2018-10-02T03:10:26.764Z,4.40
2018-10-02T03:12:55.052Z,4.30
2018-10-02T03:15:23.267Z,4.10
2018-10-02T03:17:51.759Z,4.10
2018-10-02T03:20:20.128Z,4.00
2018-10-02T03:22:48.343Z,4.00
2018-10-02T03:25:16.609Z,3.90
2018-10-02T03:27:44.897Z,3.80
2018-10-02T03:30:13.113Z,3.80
2018-10-02T03:32:41.414Z,3.60
2018-10-02T03:35:10.069Z,3.50
2018-10-02T03:37:39.218Z,3.50
2018-10-02T03:40:07.946Z,3.50
2018-10-02T03:42:36.186Z,3.50
2018-10-02T03:45:04.705Z,3.50
2018-10-02T03:47:32.918Z,3.50
2018-10-02T03:50:01.427Z,3.50
2018-10-02T03:52:29.636Z,3.50
2018-10-02T03:54:57.906Z,1.20
2018-10-02T03:57:26.599Z,3.40
2018-10-02T03:59:54.866Z,3.40
2018-10-02T04:02:23.179Z,3.30
2018-10-02T04:04:51.575Z,3.30
2018-10-02T04:07:20.396Z,3.30
2018-10-02T04:09:48.638Z,3.10
2018-10-02T04:12:17.447Z,3.10
2018-10-02T04:14:45.858Z,3.10
2018-10-02T04:17:14.119Z,3.10
2018-10-02T04:19:43.635Z,3.00
2018-10-02T04:22:11.941Z,2.90
2018-10-02T04:24:40.309Z,2.90
2018-10-02T04:27:08.607Z,2.90
2018-10-02T04:29:37.189Z,2.90
2018-10-02T04:32:05.437Z,2.90
2018-10-02T04:34:33.648Z,2.90
2018-10-02T04:37:02.146Z,3.00
2018-10-02T04:39:30.769Z,3.00
2018-10-02T04:41:58.901Z,3.10
2018-10-02T04:44:27.170Z,3.10
2018-10-02T04:46:56.598Z,3.20
2018-10-02T04:49:24.790Z,3.30
2018-10-02T04:51:53.429Z,3.20
2018-10-02T04:54:22.154Z,3.20
2018-10-02T04:56:50.604Z,3.10
2018-10-02T04:59:19.187Z,3.00
2018-10-02T05:01:47.606Z,2.90
2018-10-02T05:04:15.805Z,2.90
2018-10-02T05:06:44.139Z,2.80
2018-10-02T05:09:14.058Z,2.80
2018-10-02T05:11:42.622Z,2.80
2018-10-02T05:14:10.925Z,2.90
2018-10-02T05:16:39.514Z,2.90
2018-10-02T05:19:07.992Z,2.90
2018-10-02T05:21:36.181Z,2.80
2018-10-02T05:24:04.468Z,2.80
2018-10-02T05:26:32.703Z,2.70
2018-10-02T05:29:01.020Z,2.60
2018-10-02T05:31:29.362Z,2.50
2018-10-02T05:33:57.647Z,2.50
2018-10-02T05:36:25.852Z,2.50
2018-10-02T05:38:54.092Z,2.60
2018-10-02T05:41:22.528Z,2.70
2018-10-02T05:43:50.946Z,2.80
2018-10-02T05:46:19.146Z,2.90
2018-10-02T05:48:47.621Z,2.90
2018-10-02T05:51:16.140Z,3.00
2018-10-02T05:53:44.377Z,3.10
2018-10-02T05:56:12.677Z,3.20
2018-10-02T05:58:41.006Z,3.20
2018-10-02T06:01:09.358Z,3.20
2018-10-02T06:03:37.608Z,3.30
2018-10-02T06:06:05.930Z,3.50
2018-10-02T06:08:34.214Z,3.80
2018-10-02T06:11:02.499Z,4.20
2018-10-02T06:13:30.844Z,4.50
2018-10-02T06:15:59.214Z,5.20
2018-10-02T06:18:27.442Z,6.20
2018-10-02T06:20:55.658Z,7.20
2018-10-02T06:23:24.176Z,7.60
2018-10-02T06:25:52.615Z,7.70
2018-10-02T06:28:20.802Z,7.60
2018-10-02T06:30:49.281Z,8.00
2018-10-02T06:33:17.659Z,8.60
2018-10-02T06:35:45.889Z,9.10
2018-10-02T06:38:14.379Z,9.10
2018-10-02T06:40:42.619Z,8.90
2018-10-02T06:43:10.905Z,8.60
2018-10-02T06:45:39.252Z,8.30
2018-10-02T06:48:08.332Z,8.00
2018-10-02T06:50:36.581Z,7.70
2018-10-02T06:53:05.118Z,7.70
2018-10-02T06:55:33.655Z,8.30
2018-10-02T06:58:01.865Z,8.90
2018-10-02T07:00:30.356Z,9.90
2018-10-02T07:02:58.733Z,11.30
2018-10-02T07:05:27.058Z,12.50
2018-10-02T07:07:55.264Z,13.00
2018-10-02T07:10:23.458Z,13.10
2018-10-02T07:12:51.738Z,12.60
2018-10-02T07:15:19.922Z,12.30
2018-10-02T07:17:48.255Z,11.90
2018-10-02T07:20:16.415Z,11.40
2018-10-02T07:22:44.629Z,10.90
2018-10-02T07:25:13.001Z,10.60
2018-10-02T07:27:41.287Z,10.40
2018-10-02T07:30:09.715Z,10.50
2018-10-02T07:32:38.161Z,10.40
2018-10-02T07:35:06.450Z,10.20
2018-10-02T07:37:34.842Z,10.40
2018-10-02T07:40:03.625Z,10.60
2018-10-02T07:42:31.921Z,10.80
2018-10-02T07:45:00.255Z,11.50
2018-10-02T07:47:28.393Z,12.30
2018-10-02T07:49:56.692Z,12.80
2018-10-02T07:52:24.865Z,12.70
2018-10-02T07:54:53.077Z,12.40
2018-10-02T07:57:21.492Z,12.50
2018-10-02T07:59:49.663Z,13.70
2018-10-02T08:02:17.822Z,13.90
2018-10-02T08:04:46.413Z,13.90
2018-10-02T08:07:14.826Z,13.30
2018-10-02T08:09:42.990Z,13.30
2018-10-02T08:12:11.262Z,13.80
2018-10-02T08:14:39.526Z,14.20
2018-10-02T08:17:07.827Z,14.60
2018-10-02T08:19:36.207Z,14.80
2018-10-02T08:22:04.463Z,14.70
2018-10-02T08:24:32.692Z,14.60
2018-10-02T08:27:01.026Z,14.20
2018-10-02T08:29:29.600Z,14.30
2018-10-02T08:31:58.128Z,14.00
2018-10-02T08:34:26.476Z,15.00
2018-10-02T08:36:54.708Z,16.00
2018-10-02T08:39:23.025Z,16.50
2018-10-02T08:41:51.303Z,16.10
2018-10-02T08:44:19.540Z,16.00
2018-10-02T08:46:47.808Z,15.90
2018-10-02T08:49:16.534Z,15.60
2018-10-02T08:51:45.178Z,15.10
2018-10-02T08:54:13.951Z,14.70
2018-10-02T08:56:42.429Z,14.70
2018-10-02T08:59:10.642Z,14.20
2018-10-02T09:01:38.788Z,13.90
2018-10-02T09:04:07.420Z,14.00
2018-10-02T09:06:35.727Z,14.60
2018-10-02T09:09:07.105Z,15.20
2018-10-02T09:11:35.528Z,14.80
2018-10-02T09:14:03.749Z,14.50
2018-10-02T09:16:32.136Z,14.40
2018-10-02T09:19:00.383Z,14.90
2018-10-02T09:21:28.612Z,15.30
2018-10-02T09:23:56.825Z,15.60
2018-10-02T09:26:25.150Z,15.00
2018-10-02T09:28:53.419Z,14.70
2018-10-02T09:31:27.261Z,15.00
2018-10-02T09:34:01.432Z,15.20
2018-10-02T09:36:35.208Z,15.00
2018-10-02T09:39:10.271Z,15.40
2018-10-02T09:41:44.021Z,15.30
2018-10-02T09:44:12.329Z,15.30
2018-10-02T09:46:40.619Z,15.20
2018-10-02T09:49:08.704Z,15.00
2018-10-02T09:51:36.879Z,14.50
2018-10-02T09:54:05.056Z,13.80
2018-10-02T09:56:39.178Z,13.50
2018-10-02T09:59:07.544Z,13.30
2018-10-02T10:01:41.768Z,13.20
2018-10-02T10:04:09.992Z,12.90
2018-10-02T10:06:38.351Z,12.70
2018-10-02T10:09:08.066Z,12.50
2018-10-02T10:11:36.212Z,12.50
2018-10-02T10:14:04.389Z,12.70
2018-10-02T10:16:32.814Z,13.10
2018-10-02T10:19:01.253Z,14.10
2018-10-02T10:21:29.789Z,15.00
2018-10-02T10:23:58.074Z,15.50
2018-10-02T10:26:26.329Z,15.30
2018-10-02T10:28:54.658Z,15.20
2018-10-02T10:31:22.802Z,15.10
2018-10-02T10:33:51.231Z,14.40
2018-10-02T10:36:19.423Z,14.20
2018-10-02T10:38:47.599Z,13.70
2018-10-02T10:41:15.907Z,13.50
2018-10-02T10:43:44.186Z,13.50
2018-10-02T10:46:12.507Z,13.50
2018-10-02T10:48:41.344Z,13.70
2018-10-02T10:51:10.176Z,13.30
2018-10-02T10:53:38.515Z,13.30
2018-10-02T10:56:06.691Z,13.60
2018-10-02T10:58:34.998Z,13.70
2018-10-02T11:01:03.330Z,13.60
2018-10-02T11:03:31.788Z,13.40
2018-10-02T11:06:00.510Z,13.40
2018-10-02T11:08:28.731Z,13.30
2018-10-02T11:10:56.932Z,13.30
2018-10-02T11:13:25.101Z,13.40
2018-10-02T11:15:53.620Z,13.50
2018-10-02T11:18:22.305Z,13.40
2018-10-02T11:20:50.580Z,13.30
2018-10-02T11:23:18.889Z,13.30
2018-10-02T11:25:48.469Z,13.40
2018-10-02T11:28:17.118Z,13.60
2018-10-02T11:32:10.193Z,13.70
2018-10-02T11:34:38.323Z,13.80
2018-10-02T11:37:06.685Z,13.50
2018-10-02T11:39:34.862Z,13.60
2018-10-02T11:42:03.247Z,13.60
2018-10-02T11:44:31.645Z,13.60
2018-10-02T11:47:00.048Z,13.70
2018-10-02T11:49:28.361Z,13.80
2018-10-02T11:51:56.742Z,13.90
2018-10-02T11:54:25.177Z,14.00
2018-10-02T11:56:53.578Z,13.90
2018-10-02T11:59:21.747Z,14.00
2018-10-02T12:01:50.032Z,14.50
2018-10-02T12:04:18.343Z,14.40
2018-10-02T12:06:47.075Z,14.20
2018-10-02T12:09:15.775Z,14.40
2018-10-02T12:11:43.960Z,14.10
2018-10-02T12:14:12.467Z,14.00
2018-10-02T12:16:41.112Z,13.90
2018-10-02T12:19:09.555Z,13.80
2018-10-02T12:21:38.085Z,13.70
2018-10-02T12:24:06.350Z,13.60
2018-10-02T12:26:35.794Z,13.60
2018-10-02T12:29:04.690Z,13.60
2018-10-02T12:31:33.055Z,13.70
2018-10-02T12:34:02.086Z,13.70
2018-10-02T12:36:30.366Z,13.70
2018-10-02T12:38:58.841Z,13.80
2018-10-02T12:41:27.205Z,13.60
2018-10-02T12:43:55.762Z,13.50
2018-10-02T12:46:24.370Z,13.50
2018-10-02T12:48:52.550Z,13.50
2018-10-02T12:51:20.882Z,13.50
2018-10-02T12:53:49.313Z,13.50
2018-10-02T12:56:17.658Z,13.20
2018-10-02T12:58:46.163Z,13.30
2018-10-02T13:01:14.384Z,13.30
2018-10-02T13:03:43.291Z,13.20
2018-10-02T13:06:11.488Z,13.20
2018-10-02T13:08:39.779Z,13.30
2018-10-02T13:11:07.997Z,13.40
2018-10-02T13:13:36.853Z,13.40
2018-10-02T13:16:05.083Z,13.40
2018-10-02T13:18:33.356Z,13.40
2018-10-02T13:21:01.632Z,13.40
2018-10-02T13:23:29.876Z,13.40
2018-10-02T13:25:58.493Z,13.30
2018-10-02T13:28:26.819Z,13.30
2018-10-02T13:30:55.111Z,13.20
2018-10-02T13:33:23.554Z,13.30
2018-10-02T13:35:51.766Z,13.10
2018-10-02T13:38:20.003Z,13.00
2018-10-02T13:40:48.404Z,13.00
2018-10-02T13:43:16.609Z,13.10
2018-10-02T13:45:44.842Z,13.00
2018-10-02T13:48:13.218Z,13.00
2018-10-02T13:50:41.952Z,12.90
2018-10-02T13:53:10.549Z,12.90
2018-10-02T13:55:38.756Z,12.90
2018-10-02T13:58:07.446Z,13.00
2018-10-02T14:00:35.859Z,12.90
2018-10-02T14:03:04.131Z,12.60
2018-10-02T14:05:32.720Z,12.40
2018-10-02T14:08:01.163Z,12.30
2018-10-02T14:10:29.598Z,12.00
2018-10-02T14:12:58.075Z,12.00
2018-10-02T14:15:26.481Z,11.90
2018-10-02T14:17:55.596Z,11.90
2018-10-02T14:20:24.249Z,11.90
2018-10-02T14:22:52.841Z,11.70
2018-10-02T14:25:21.209Z,11.60
2018-10-02T14:27:49.548Z,11.70
2018-10-02T14:30:17.955Z,11.70
2018-10-02T14:32:46.172Z,11.60
2018-10-02T14:35:14.499Z,11.50
2018-10-02T14:37:42.697Z,11.50
2018-10-02T14:40:11.117Z,11.50
2018-10-02T14:42:39.285Z,11.50
2018-10-02T14:45:07.659Z,11.50
2018-10-02T14:47:35.927Z,11.40
2018-10-02T14:50:04.257Z,11.40
2018-10-02T14:52:32.669Z,11.40
2018-10-02T14:55:01.657Z,11.40
2018-10-02T14:57:29.879Z,11.40
2018-10-02T14:59:58.089Z,11.40
2018-10-02T15:02:26.542Z,11.40
2018-10-02T15:04:55.243Z,11.50
2018-10-02T15:07:23.615Z,11.40
2018-10-02T15:09:51.885Z,11.40
2018-10-02T15:12:20.375Z,11.40
2018-10-02T15:14:48.870Z,11.40
2018-10-02T15:17:17.525Z,11.40
2018-10-02T15:19:45.866Z,11.30
2018-10-02T15:22:14.128Z,11.40
2018-10-02T15:24:42.251Z,11.40
2018-10-02T15:27:10.747Z,11.40
2018-10-02T15:29:39.091Z,11.30
2018-10-02T15:32:08.120Z,11.40
2018-10-02T15:34:36.472Z,11.50
2018-10-02T15:37:05.244Z,11.50
2018-10-02T15:39:33.553Z,11.50
2018-10-02T15:42:04.105Z,11.50
2018-10-02T15:44:32.328Z,11.50
2018-10-02T15:47:00.581Z,11.50
2018-10-02T15:49:28.929Z,11.50
2018-10-02T15:52:01.179Z,11.40
2018-10-02T15:54:29.541Z,11.40
2018-10-02T15:56:57.729Z,11.40
2018-10-02T15:59:26.320Z,11.40
2018-10-02T16:01:54.726Z,11.40
2018-10-02T16:04:23.213Z,11.50
2018-10-02T16:06:51.528Z,11.50
2018-10-02T16:09:19.807Z,11.50
2018-10-02T16:11:49.452Z,11.50
2018-10-02T16:14:17.768Z,11.40
2018-10-02T16:16:46.286Z,11.50
2018-10-02T16:19:14.818Z,11.40
2018-10-02T16:21:43.076Z,11.50
2018-10-02T16:24:11.367Z,11.50
2018-10-02T16:26:39.994Z,11.40
2018-10-02T16:29:08.893Z,11.50
2018-10-02T16:31:37.352Z,11.40
2018-10-02T16:34:05.836Z,11.40
2018-10-02T16:36:34.236Z,11.40
2018-10-02T16:39:03.212Z,11.40
2018-10-02T16:41:31.744Z,11.40
2018-10-02T16:43:59.989Z,11.40
2018-10-02T16:46:28.133Z,11.40
2018-10-02T16:48:56.372Z,11.40
2018-10-02T16:51:24.980Z,11.40
2018-10-02T16:53:53.365Z,11.40
2018-10-02T16:56:21.791Z,11.40
2018-10-02T16:58:50.214Z,11.40
2018-10-02T17:01:18.457Z,11.40
2018-10-02T17:03:48.107Z,11.40
2018-10-02T17:06:16.269Z,11.30
2018-10-02T17:08:44.690Z,11.30
2018-10-02T17:11:13.407Z,11.30
2018-10-02T17:13:41.707Z,11.20
2018-10-02T17:16:09.877Z,11.30
2018-10-02T17:18:38.258Z,11.30
2018-10-02T17:21:06.762Z,11.30
2018-10-02T17:23:36.155Z,11.30
2018-10-02T17:26:04.420Z,11.30
2018-10-02T17:28:32.723Z,11.30
2018-10-02T17:31:01.072Z,11.30
2018-10-02T17:33:29.755Z,11.30
2018-10-02T17:35:57.903Z,11.20
2018-10-02T17:38:26.201Z,11.30
2018-10-02T17:40:54.375Z,11.30
2018-10-02T17:43:22.627Z,11.30
2018-10-02T17:45:50.834Z,11.30
2018-10-02T17:48:19.078Z,11.30
2018-10-02T17:50:47.240Z,11.40
2018-10-02T17:53:15.580Z,11.30
2018-10-02T17:55:43.768Z,11.30
2018-10-02T17:58:14.859Z,11.30
2018-10-02T18:00:43.156Z,11.30
2018-10-02T18:03:11.733Z,11.30
2018-10-02T18:05:40.013Z,11.30
2018-10-02T18:08:08.218Z,11.30
2018-10-02T18:10:36.503Z,11.30
2018-10-02T18:13:04.800Z,11.30
2018-10-02T18:15:34.119Z,11.30
2018-10-02T18:18:03.357Z,11.40
2018-10-02T18:20:33.031Z,11.30
2018-10-02T18:23:01.399Z,11.30
2018-10-02T18:25:29.884Z,11.30
2018-10-02T18:27:58.164Z,11.30
2018-10-02T18:30:26.401Z,11.30
2018-10-02T18:32:54.752Z,11.30
2018-10-02T18:35:23.118Z,11.30
2018-10-02T18:37:52.131Z,11.30
2018-10-02T18:40:20.646Z,11.30
2018-10-02T18:42:48.938Z,11.20
2018-10-02T18:45:16.954Z,11.20
2018-10-02T18:47:45.330Z,11.20
2018-10-02T18:50:13.429Z,11.20
2018-10-02T18:52:42.145Z,11.20
2018-10-02T18:55:11.017Z,11.20
2018-10-02T18:57:39.283Z,11.20
2018-10-02T19:00:07.552Z,11.20
2018-10-02T19:02:36.547Z,11.20
2018-10-02T19:05:05.420Z,11.20
2018-10-02T19:07:35.150Z,11.20
2018-10-02T19:10:04.092Z,11.20
2018-10-02T19:12:33.367Z,11.20
2018-10-02T19:15:01.515Z,11.20
2018-10-02T19:17:29.743Z,11.20
2018-10-02T19:20:03.514Z,11.20
2018-10-02T19:22:31.592Z,11.20
2018-10-02T19:25:05.535Z,11.20
2018-10-02T19:27:33.682Z,11.10
2018-10-02T19:30:07.591Z,11.00
2018-10-02T19:32:35.782Z,11.00
2018-10-02T19:35:04.060Z,11.00
2018-10-02T19:37:38.090Z,11.00
2018-10-02T19:40:06.448Z,11.10
2018-10-02T19:42:35.439Z,11.10
2018-10-02T19:45:09.597Z,11.00
2018-10-02T19:47:38.232Z,10.90
2018-10-02T19:50:06.687Z,11.00
2018-10-02T19:52:35.065Z,11.00
2018-10-02T19:55:03.863Z,11.10
2018-10-02T19:57:32.098Z,11.10
2018-10-02T20:00:03.016Z,11.10
2018-10-02T20:02:31.352Z,11.10
2018-10-02T20:04:59.583Z,11.10
2018-10-02T20:07:28.015Z,11.20
2018-10-02T20:09:56.706Z,11.10
2018-10-02T20:12:24.896Z,11.20
2018-10-02T20:14:53.216Z,11.20
2018-10-02T20:17:21.726Z,11.20
2018-10-02T20:19:49.994Z,11.20
2018-10-02T20:22:18.472Z,11.20
2018-10-02T20:24:46.649Z,11.20
2018-10-02T20:27:14.993Z,11.20
2018-10-02T20:29:43.163Z,11.30
2018-10-02T20:32:12.038Z,11.30
2018-10-02T20:34:40.264Z,11.30
2018-10-02T20:37:08.443Z,11.20
2018-10-02T20:39:36.976Z,11.30
2018-10-02T20:42:05.386Z,11.30
2018-10-02T20:44:33.706Z,11.30
2018-10-02T20:47:02.164Z,11.30
2018-10-02T20:49:30.385Z,11.30
2018-10-02T20:51:59.377Z,11.30
2018-10-02T20:54:28.584Z,11.20
2018-10-02T20:56:56.792Z,11.30
2018-10-02T20:59:25.208Z,11.20
2018-10-02T21:01:53.653Z,11.20
2018-10-02T21:04:22.125Z,11.20
2018-10-02T21:06:50.300Z,10.70
2018-10-02T21:09:18.703Z,11.20
2018-10-02T21:11:46.846Z,11.10
2018-10-02T21:14:15.273Z,11.10
2018-10-02T21:16:43.596Z,11.10
2018-10-02T21:19:11.809Z,11.10
2018-10-02T21:21:40.112Z,11.10
2018-10-02T21:24:08.281Z,11.00
2018-10-02T21:26:36.577Z,11.00
2018-10-02T21:29:04.959Z,11.00
2018-10-02T21:31:33.278Z,10.90
2018-10-02T21:34:01.604Z,10.80
2018-10-02T21:36:29.853Z,10.80
2018-10-02T21:38:58.025Z,10.70
2018-10-02T21:41:26.478Z,10.70
2018-10-02T21:43:54.764Z,10.70
2018-10-02T21:46:23.159Z,10.60
2018-10-02T21:48:51.295Z,10.60
2018-10-02T21:51:19.486Z,10.60
2018-10-02T21:53:47.751Z,10.60
2018-10-02T21:56:15.867Z,10.50
2018-10-02T21:58:44.226Z,10.30
2018-10-02T22:01:13.006Z,10.20
2018-10-02T22:03:41.430Z,10.20
2018-10-02T22:06:11.061Z,10.10
2018-10-02T22:08:39.391Z,10.20
2018-10-02T22:11:07.740Z,10.20
2018-10-02T22:13:36.121Z,10.30
2018-10-02T22:16:05.014Z,10.40
2018-10-02T22:18:33.272Z,10.50
2018-10-02T22:21:01.553Z,10.60
2018-10-02T22:23:29.839Z,10.60
2018-10-02T22:25:58.312Z,10.60
2018-10-02T22:28:26.522Z,10.70
2018-10-02T22:30:54.721Z,10.70
2018-10-02T22:33:23.482Z,10.80
2018-10-02T22:35:51.998Z,10.60
2018-10-02T22:38:20.402Z,10.40
2018-10-02T22:40:48.841Z,10.30
2018-10-02T22:43:16.988Z,10.20
2018-10-02T22:45:45.429Z,10.10
2018-10-02T22:48:13.589Z,10.00
2018-10-02T22:50:42.333Z,10.00
2018-10-02T22:53:10.847Z,10.00
2018-10-02T22:55:39.094Z,10.10
2018-10-02T22:58:07.261Z,10.10
2018-10-02T23:00:35.445Z,10.20
2018-10-02T23:03:04.003Z,10.10
2018-10-02T23:05:32.366Z,10.20
2018-10-02T23:08:00.599Z,10.20
2018-10-02T23:10:28.795Z,10.20
2018-10-02T23:12:57.130Z,10.30
2018-10-02T23:15:25.396Z,10.40
2018-10-02T23:17:53.600Z,10.40
2018-10-02T23:20:21.837Z,10.50
2018-10-02T23:22:50.237Z,10.50
2018-10-02T23:25:18.720Z,10.60
2018-10-02T23:27:47.494Z,10.60
2018-10-02T23:30:15.666Z,10.50
2018-10-02T23:32:44.158Z,10.40
2018-10-02T23:35:12.609Z,10.20
2018-10-02T23:37:40.752Z,10.10
2018-10-02T23:40:08.906Z,10.00
2018-10-02T23:42:37.034Z,9.90
2018-10-02T23:45:05.330Z,9.90
2018-10-02T23:47:33.527Z,9.80
2018-10-02T23:50:01.883Z,9.80
2018-10-02T23:52:29.929Z,9.80
2018-10-02T23:54:58.382Z,9.80
2018-10-02T23:57:26.669Z,9.90
2018-10-02T23:59:54.921Z,10.00
